createdAt,value
2022-09-12T00:00:50.675Z,14.50
2022-09-12T00:03:17.493Z,14.63
2022-09-12T00:05:47.720Z,14.53
2022-09-12T00:08:14.663Z,14.66
2022-09-12T00:10:43.037Z,14.53
2022-09-12T00:13:10.469Z,14.50
2022-09-12T00:15:42.305Z,14.56
2022-09-12T00:18:10.358Z,14.50
2022-09-12T00:20:42.300Z,14.51
2022-09-12T00:23:08.722Z,14.41
2022-09-12T00:25:35.154Z,14.22
2022-09-12T00:28:01.748Z,14.35
2022-09-12T00:30:28.182Z,14.24
2022-09-12T00:32:54.800Z,14.29
2022-09-12T00:35:21.259Z,14.38
2022-09-12T00:37:47.662Z,14.33
2022-09-12T00:40:14.414Z,14.26
2022-09-12T00:42:40.854Z,14.23
2022-09-12T00:45:23.217Z,14.35
2022-09-12T00:47:49.756Z,14.32
2022-09-12T00:50:17.493Z,14.33
2022-09-12T00:52:53.299Z,14.07
2022-09-12T00:55:24.673Z,14.13
2022-09-12T00:57:54.256Z,14.08
2022-09-12T01:00:23.523Z,14.08
2022-09-12T01:02:53.528Z,13.91
2022-09-12T01:05:22.305Z,13.88
2022-09-12T01:07:50.431Z,13.89
2022-09-12T01:10:18.911Z,13.83
2022-09-12T01:12:46.361Z,13.91
2022-09-12T01:15:13.078Z,13.74
2022-09-12T01:17:56.125Z,13.72
2022-09-12T01:20:45.382Z,13.91
2022-09-12T01:23:44.500Z,13.77
2022-09-12T01:26:55.519Z,13.73
2022-09-12T01:30:04.842Z,13.84
2022-09-12T01:33:09.198Z,13.84
2022-09-12T01:35:44.835Z,13.80
2022-09-12T01:38:34.464Z,13.75
2022-09-12T01:41:15.640Z,13.95
2022-09-12T01:44:02.029Z,14.30
2022-09-12T01:46:50.529Z,14.14
2022-09-12T01:49:38.050Z,13.97
2022-09-12T01:52:21.306Z,13.91
2022-09-12T01:55:00.364Z,13.76
2022-09-12T01:57:37.218Z,13.57
2022-09-12T02:00:11.493Z,13.58
2022-09-12T02:03:02.690Z,13.61
2022-09-12T02:05:39.649Z,13.57
2022-09-12T02:08:09.883Z,13.68
2022-09-12T02:10:52.831Z,13.53
2022-09-12T02:13:27.159Z,13.42
2022-09-12T02:15:59.969Z,13.39
2022-09-12T02:18:29.061Z,13.35
2022-09-12T02:20:56.969Z,13.22
2022-09-12T02:23:27.778Z,13.36
2022-09-12T02:26:02.488Z,13.34
2022-09-12T02:28:36.816Z,13.31
2022-09-12T02:31:22.042Z,13.28
2022-09-12T02:33:55.763Z,13.24
2022-09-12T02:36:31.779Z,13.34
2022-09-12T02:38:58.585Z,13.24
2022-09-12T02:41:25.138Z,13.42
2022-09-12T02:43:53.666Z,13.20
2022-09-12T02:46:28.427Z,13.32
2022-09-12T02:48:55.925Z,13.30
2022-09-12T02:51:23.740Z,13.29
2022-09-12T02:53:51.003Z,13.33
2022-09-12T02:56:24.719Z,13.38
2022-09-12T02:58:52.288Z,13.28
2022-09-12T03:01:49.656Z,13.20
2022-09-12T03:04:18.823Z,13.19
2022-09-12T03:06:54.444Z,13.21
2022-09-12T03:09:58.960Z,13.22
2022-09-12T03:12:37.524Z,13.27
2022-09-12T03:15:24.373Z,13.29
2022-09-12T03:18:19.203Z,13.43
2022-09-12T03:20:50.645Z,13.46
2022-09-12T03:23:33.256Z,13.37
2022-09-12T03:26:12.887Z,13.40
2022-09-12T03:28:42.426Z,13.31
2022-09-12T03:31:17.004Z,13.28
2022-09-12T03:33:44.210Z,13.07
2022-09-12T03:36:23.735Z,13.15
2022-09-12T03:38:50.429Z,13.16
2022-09-12T03:41:16.903Z,13.00
2022-09-12T03:43:44.626Z,13.10
2022-09-12T03:46:11.133Z,13.10
2022-09-12T03:48:37.682Z,13.04
2022-09-12T03:51:06.189Z,12.86
2022-09-12T03:53:33.089Z,13.09
2022-09-12T03:55:59.565Z,13.07
2022-09-12T03:58:30.567Z,13.10
2022-09-12T04:00:57.065Z,13.17
2022-09-12T04:03:23.504Z,13.10
2022-09-12T04:05:49.919Z,13.03
2022-09-12T04:08:16.430Z,13.08
2022-09-12T04:10:42.861Z,12.97
2022-09-12T04:13:09.338Z,13.02
2022-09-12T04:15:35.750Z,13.21
2022-09-12T04:18:05.696Z,13.41
2022-09-12T04:20:32.483Z,13.50
2022-09-12T04:22:58.875Z,13.61
2022-09-12T04:25:25.618Z,13.51
2022-09-12T04:27:52.055Z,13.67
2022-09-12T04:30:18.593Z,13.91
2022-09-12T04:32:45.257Z,13.90
2022-09-12T04:35:12.830Z,13.96
2022-09-12T04:37:39.285Z,14.05
2022-09-12T04:40:06.118Z,14.14
2022-09-12T04:42:32.548Z,14.08
2022-09-12T04:44:58.954Z,14.00
2022-09-12T04:47:25.354Z,13.86
2022-09-12T04:49:52.388Z,13.60
2022-09-12T04:52:18.805Z,13.55
2022-09-12T04:54:45.476Z,13.53
2022-09-12T04:57:11.908Z,13.62
2022-09-12T04:59:38.578Z,13.77
2022-09-12T05:02:05.873Z,13.57
2022-09-12T05:04:32.379Z,13.63
2022-09-12T05:06:58.850Z,13.50
2022-09-12T05:09:25.315Z,13.52
2022-09-12T05:12:07.120Z,13.61
2022-09-12T05:14:34.367Z,13.65
2022-09-12T05:17:01.874Z,13.56
2022-09-12T05:19:30.460Z,13.36
2022-09-12T05:21:56.997Z,13.30
2022-09-12T05:24:24.654Z,13.21
2022-09-12T05:26:51.235Z,13.62
2022-09-12T05:29:17.793Z,13.69
2022-09-12T05:31:44.211Z,13.66
2022-09-12T05:34:11.282Z,13.66
2022-09-12T05:36:38.587Z,13.91
2022-09-12T05:39:05.864Z,14.15
2022-09-12T05:41:33.787Z,14.17
2022-09-12T05:44:05.569Z,14.17
2022-09-12T05:46:40.310Z,14.25
2022-09-12T05:49:08.825Z,14.30
2022-09-12T05:51:38.381Z,14.49
2022-09-12T05:54:07.718Z,14.74
2022-09-12T05:56:39.361Z,14.97
2022-09-12T05:59:12.021Z,15.32
2022-09-12T06:01:38.809Z,15.57
2022-09-12T06:04:07.011Z,15.68
2022-09-12T06:06:38.528Z,15.78
2022-09-12T06:09:06.128Z,16.00
2022-09-12T06:11:35.116Z,16.30
2022-09-12T06:14:01.994Z,16.51
2022-09-12T06:16:33.934Z,16.73
2022-09-12T06:19:03.676Z,17.05
2022-09-12T06:21:34.457Z,17.09
2022-09-12T06:24:01.757Z,16.91
2022-09-12T06:26:29.212Z,16.96
2022-09-12T06:28:57.060Z,17.11
2022-09-12T06:31:35.530Z,17.91
2022-09-12T06:34:04.463Z,18.44
2022-09-12T06:36:38.057Z,18.58
2022-09-12T06:39:11.402Z,18.53
2022-09-12T06:41:43.003Z,18.52
2022-09-12T06:44:19.319Z,19.12
2022-09-12T06:46:46.112Z,19.11
2022-09-12T06:49:12.909Z,19.36
2022-09-12T06:51:39.503Z,18.49
2022-09-12T06:54:05.922Z,18.95
2022-09-12T06:56:32.528Z,19.18
2022-09-12T06:58:59.316Z,19.32
2022-09-12T07:01:28.413Z,19.94
2022-09-12T07:03:57.410Z,20.09
2022-09-12T07:06:31.622Z,20.17
2022-09-12T07:09:02.773Z,19.71
2022-09-12T07:11:32.021Z,20.20
2022-09-12T07:13:59.902Z,20.43
2022-09-12T07:16:26.730Z,20.98
2022-09-12T07:18:55.227Z,21.23
2022-09-12T07:21:22.137Z,21.01
2022-09-12T07:23:49.294Z,21.28
2022-09-12T07:26:16.813Z,21.28
2022-09-12T07:28:44.128Z,21.61
2022-09-12T07:31:13.477Z,21.55
2022-09-12T07:33:41.308Z,21.72
2022-09-12T07:36:11.871Z,22.21
2022-09-12T07:38:41.907Z,22.36
2022-09-12T07:41:12.247Z,22.76
2022-09-12T07:43:38.648Z,23.08
2022-09-12T07:46:05.386Z,23.16
2022-09-12T07:48:32.203Z,23.53
2022-09-12T07:51:04.356Z,23.34
2022-09-12T07:53:33.852Z,23.36
2022-09-12T07:56:00.578Z,23.45
2022-09-12T07:58:26.982Z,23.62
2022-09-12T08:00:53.624Z,23.55
2022-09-12T08:03:20.669Z,24.36
2022-09-12T08:05:47.177Z,25.28
2022-09-12T08:08:13.755Z,24.71
2022-09-12T08:10:40.205Z,25.44
2022-09-12T08:13:08.757Z,25.74
2022-09-12T08:15:36.608Z,26.36
2022-09-12T08:18:03.105Z,26.32
2022-09-12T08:20:30.375Z,26.11
2022-09-12T08:22:56.782Z,26.25
2022-09-12T08:25:23.501Z,26.30
2022-09-12T08:27:50.252Z,26.33
2022-09-12T08:30:16.682Z,26.02
2022-09-12T08:32:43.101Z,26.02
2022-09-12T08:35:09.783Z,26.12
2022-09-12T08:37:36.199Z,27.24
2022-09-12T08:40:02.820Z,26.68
2022-09-12T08:43:10.697Z,27.97
2022-09-12T08:45:47.795Z,28.57
2022-09-12T08:48:14.391Z,27.31
2022-09-12T08:50:49.213Z,28.66
2022-09-12T08:53:20.602Z,28.16
2022-09-12T08:55:56.236Z,28.72
2022-09-12T08:58:24.531Z,28.08
2022-09-12T09:01:08.092Z,27.90
2022-09-12T09:03:40.302Z,28.62
2022-09-12T09:06:18.338Z,28.13
2022-09-12T09:09:11.918Z,28.84
2022-09-12T09:12:15.825Z,30.69
2022-09-12T09:15:05.230Z,30.95
2022-09-12T09:17:38.065Z,31.73
2022-09-12T09:20:22.577Z,32.51
2022-09-12T09:23:03.793Z,31.76
2022-09-12T09:26:04.568Z,31.63
2022-09-12T09:28:42.396Z,32.44
2022-09-12T09:31:17.314Z,33.31
2022-09-12T09:33:46.332Z,34.42
2022-09-12T09:36:25.975Z,33.32
2022-09-12T09:39:05.975Z,34.32
2022-09-12T09:41:47.765Z,34.68
2022-09-12T09:44:14.351Z,34.17
2022-09-12T09:46:41.042Z,34.19
2022-09-12T09:49:12.687Z,33.48
2022-09-12T09:51:40.908Z,33.90
2022-09-12T09:54:18.024Z,32.71
2022-09-12T09:56:45.008Z,34.60
2022-09-12T09:59:20.864Z,34.58
2022-09-12T10:01:57.483Z,34.16
2022-09-12T10:04:30.518Z,34.44
2022-09-12T10:07:05.903Z,35.39
2022-09-12T10:09:36.187Z,36.69
2022-09-12T10:12:26.244Z,37.64
2022-09-12T10:15:17.027Z,36.43
2022-09-12T10:17:49.537Z,36.44
2022-09-12T10:20:37.414Z,35.80
2022-09-12T10:23:28.424Z,37.11
2022-09-12T10:26:01.371Z,35.30
2022-09-12T10:28:45.887Z,36.69
2022-09-12T10:31:28.847Z,37.81
2022-09-12T10:34:00.181Z,37.22
2022-09-12T10:36:36.696Z,37.16
2022-09-12T10:39:03.950Z,36.88
2022-09-12T10:41:41.024Z,37.89
2022-09-12T10:44:14.260Z,37.09
2022-09-12T10:46:40.707Z,35.44
2022-09-12T10:49:28.551Z,38.14
2022-09-12T10:51:56.761Z,38.60
2022-09-12T10:54:27.011Z,37.46
2022-09-12T10:57:13.738Z,38.71
2022-09-12T10:59:56.594Z,37.36
2022-09-12T11:02:48.177Z,38.77
2022-09-12T11:05:26.744Z,38.68
2022-09-12T11:08:04.739Z,37.98
2022-09-12T11:11:16.122Z,37.85
2022-09-12T11:13:55.270Z,39.66
2022-09-12T11:16:43.270Z,40.59
2022-09-12T11:19:34.038Z,40.51
2022-09-12T11:22:51.681Z,39.39
2022-09-12T11:25:35.512Z,40.53
2022-09-12T11:28:14.078Z,38.89
2022-09-12T11:30:56.732Z,39.24
2022-09-12T11:33:45.958Z,40.49
2022-09-12T11:36:20.564Z,41.93
2022-09-12T11:38:52.228Z,41.61
2022-09-12T11:41:24.938Z,41.28
2022-09-12T11:44:11.033Z,41.05
2022-09-12T11:46:40.096Z,41.58
2022-09-12T11:49:09.447Z,41.86
2022-09-12T11:51:40.630Z,40.06
2022-09-12T11:54:25.426Z,41.48
2022-09-12T11:57:03.093Z,40.09
2022-09-12T11:59:44.070Z,40.44
2022-09-12T12:02:15.093Z,41.37
2022-09-12T12:05:09.342Z,39.36
2022-09-12T12:07:45.621Z,40.37
2022-09-12T12:10:41.070Z,39.80
2022-09-12T12:13:23.229Z,38.50
2022-09-12T12:15:55.073Z,36.83
2022-09-12T12:18:27.897Z,36.59
2022-09-12T12:20:55.877Z,37.24
2022-09-12T12:23:34.530Z,38.29
2022-09-12T12:26:03.532Z,40.05
2022-09-12T12:28:42.208Z,38.65
2022-09-12T12:31:10.702Z,39.57
2022-09-12T12:33:37.172Z,39.97
2022-09-12T12:36:07.886Z,40.81
2022-09-12T12:38:37.067Z,41.01
2022-09-12T12:41:18.563Z,40.75
2022-09-12T12:43:47.289Z,40.67
2022-09-12T12:46:22.468Z,41.17
2022-09-12T12:49:10.102Z,40.81
2022-09-12T12:51:54.713Z,40.68
2022-09-12T12:54:49.631Z,40.89
2022-09-12T12:57:27.050Z,40.89
2022-09-12T13:00:22.056Z,40.09
2022-09-12T13:03:10.012Z,40.76
2022-09-12T13:05:50.092Z,40.52
2022-09-12T13:08:19.842Z,40.53
2022-09-12T13:11:00.358Z,40.91
2022-09-12T13:13:42.422Z,41.02
2022-09-12T13:16:28.537Z,40.11
2022-09-12T13:18:56.574Z,39.99
2022-09-12T13:21:23.810Z,39.98
2022-09-12T13:24:13.897Z,39.83
2022-09-12T13:26:46.080Z,39.61
2022-09-12T13:29:18.913Z,40.25
2022-09-12T13:31:52.924Z,39.93
2022-09-12T13:34:27.750Z,40.39
2022-09-12T13:37:18.306Z,40.36
2022-09-12T13:39:55.475Z,39.69
2022-09-12T13:42:52.483Z,37.47
2022-09-12T13:45:29.642Z,35.38
2022-09-12T13:48:00.809Z,34.90
2022-09-12T13:50:33.641Z,34.91
2022-09-12T13:53:03.770Z,34.48
2022-09-12T13:55:37.301Z,34.92
2022-09-12T13:58:15.656Z,35.02
2022-09-12T14:00:42.092Z,35.43
2022-09-12T14:03:47.789Z,33.42
2022-09-12T14:06:18.219Z,34.07
2022-09-12T14:08:47.031Z,35.82
2022-09-12T14:11:24.933Z,35.70
2022-09-12T14:13:52.645Z,35.76
2022-09-12T14:16:21.434Z,35.62
2022-09-12T14:18:49.902Z,34.36
2022-09-12T14:21:30.267Z,34.34
2022-09-12T14:23:57.617Z,33.81
2022-09-12T14:26:24.889Z,33.22
2022-09-12T14:28:51.925Z,32.96
2022-09-12T14:31:32.748Z,32.82
2022-09-12T14:34:09.985Z,32.42
2022-09-12T14:36:46.381Z,32.04
2022-09-12T14:39:39.743Z,31.56
2022-09-12T14:42:29.969Z,31.75
2022-09-12T14:45:04.063Z,31.65
2022-09-12T14:47:39.090Z,31.19
2022-09-12T14:50:16.578Z,30.60
2022-09-12T14:52:43.829Z,31.02
2022-09-12T14:55:19.002Z,31.30
2022-09-12T14:57:45.921Z,31.27
2022-09-12T15:00:12.363Z,31.33
2022-09-12T15:02:40.173Z,31.18
2022-09-12T15:05:06.534Z,30.70
2022-09-12T15:07:41.896Z,30.62
2022-09-12T15:10:22.995Z,30.53
2022-09-12T15:12:49.714Z,30.56
2022-09-12T15:15:19.309Z,30.59
2022-09-12T15:17:45.742Z,30.39
2022-09-12T15:20:13.513Z,30.09
2022-09-12T15:22:41.613Z,29.83
2022-09-12T15:25:09.171Z,29.86
2022-09-12T15:27:35.601Z,29.64
2022-09-12T15:30:02.327Z,29.60
2022-09-12T15:32:30.276Z,29.50
2022-09-12T15:34:56.983Z,29.27
2022-09-12T15:37:25.403Z,28.73
2022-09-12T15:39:52.040Z,28.76
2022-09-12T15:42:26.895Z,28.78
2022-09-12T15:44:53.839Z,28.86
2022-09-12T15:47:20.253Z,28.79
2022-09-12T15:49:46.652Z,28.64
2022-09-12T15:52:16.265Z,28.44
2022-09-12T15:54:43.769Z,28.36
2022-09-12T15:57:10.305Z,28.04
2022-09-12T15:59:37.134Z,27.85
2022-09-12T16:02:03.626Z,27.90
2022-09-12T16:04:30.748Z,27.85
2022-09-12T16:06:57.253Z,27.79
2022-09-12T16:09:24.107Z,27.70
2022-09-12T16:11:50.647Z,27.58
2022-09-12T16:14:18.836Z,27.37
2022-09-12T16:16:53.589Z,27.28
2022-09-12T16:19:20.205Z,27.31
2022-09-12T16:21:46.609Z,27.22
2022-09-12T16:24:13.030Z,27.19
2022-09-12T16:26:39.479Z,27.12
2022-09-12T16:29:06.140Z,26.95
2022-09-12T16:31:32.597Z,26.92
2022-09-12T16:33:59.009Z,26.83
2022-09-12T16:36:25.453Z,26.69
2022-09-12T16:38:54.138Z,26.74
2022-09-12T16:41:22.886Z,26.68
2022-09-12T16:43:49.306Z,26.64
2022-09-12T16:46:21.446Z,26.51
2022-09-12T16:48:52.374Z,26.47
2022-09-12T16:51:22.449Z,26.40
2022-09-12T16:53:49.301Z,26.41
2022-09-12T16:56:15.877Z,26.15
2022-09-12T16:58:42.740Z,26.12
2022-09-12T17:01:12.110Z,26.03
2022-09-12T17:03:38.901Z,25.85
2022-09-12T17:06:08.523Z,25.90
2022-09-12T17:08:38.032Z,25.82
2022-09-12T17:11:07.531Z,25.54
2022-09-12T17:14:00.179Z,25.50
2022-09-12T17:16:21.742Z,25.23
2022-09-12T17:18:49.300Z,25.21
2022-09-12T17:21:15.730Z,25.19
2022-09-12T17:23:42.687Z,25.22
2022-09-12T17:26:10.585Z,25.11
2022-09-12T17:28:38.448Z,25.13
2022-09-12T17:31:09.785Z,25.16
2022-09-12T17:33:36.938Z,25.05
2022-09-12T17:36:15.329Z,24.89
2022-09-12T17:38:43.306Z,24.86
2022-09-12T17:41:16.050Z,24.78
2022-09-12T17:43:42.716Z,24.64
2022-09-12T17:46:09.301Z,24.60
2022-09-12T17:48:36.219Z,24.54
2022-09-12T17:51:10.540Z,24.44
2022-09-12T17:53:37.472Z,24.21
2022-09-12T17:56:04.816Z,24.22
2022-09-12T17:58:32.235Z,24.17
2022-09-12T18:01:26.189Z,24.07
2022-09-12T18:03:57.767Z,24.07
2022-09-12T18:06:24.577Z,23.89
2022-09-12T18:08:51.070Z,23.80
2022-09-12T18:11:17.622Z,23.51
2022-09-12T18:13:44.081Z,23.32
2022-09-12T18:16:12.501Z,23.31
2022-09-12T18:18:39.035Z,23.11
2022-09-12T18:21:07.940Z,23.08
2022-09-12T18:23:34.496Z,23.14
2022-09-12T18:26:03.765Z,22.88
2022-09-12T18:28:33.326Z,23.00
2022-09-12T18:30:59.989Z,23.10
2022-09-12T18:33:26.487Z,23.18
2022-09-12T18:35:52.992Z,22.96
2022-09-12T18:38:19.501Z,22.70
2022-09-12T18:40:45.953Z,22.55
2022-09-12T18:43:12.403Z,22.71
2022-09-12T18:45:38.801Z,22.74
2022-09-12T18:48:06.137Z,22.78
2022-09-12T18:50:33.085Z,22.55
2022-09-12T18:53:00.004Z,22.54
2022-09-12T18:55:26.858Z,22.33
2022-09-12T18:57:55.440Z,22.42
2022-09-12T19:00:21.916Z,22.53
2022-09-12T19:02:48.320Z,22.34
2022-09-12T19:05:14.856Z,22.45
2022-09-12T19:07:41.309Z,22.42
2022-09-12T19:10:08.968Z,22.52
2022-09-12T19:12:35.447Z,22.40
2022-09-12T19:15:02.038Z,22.24
2022-09-12T19:17:28.484Z,22.47
2022-09-12T19:19:55.463Z,22.33
2022-09-12T19:22:22.200Z,22.34
2022-09-12T19:24:48.634Z,22.34
2022-09-12T19:27:16.079Z,22.32
2022-09-12T19:29:42.630Z,22.19
2022-09-12T19:32:09.057Z,22.10
2022-09-12T19:34:35.510Z,22.11
2022-09-12T19:37:01.925Z,22.13
2022-09-12T19:39:28.424Z,22.13
2022-09-12T19:41:54.830Z,21.97
2022-09-12T19:44:21.263Z,21.75
2022-09-12T19:46:47.813Z,21.62
2022-09-12T19:49:14.354Z,21.42
2022-09-12T19:51:41.137Z,21.15
2022-09-12T19:54:07.926Z,20.96
2022-09-12T19:56:34.449Z,20.93
2022-09-12T19:59:00.898Z,21.06
2022-09-12T20:01:30.847Z,21.24
2022-09-12T20:03:58.310Z,21.46
2022-09-12T20:06:25.707Z,21.42
2022-09-12T20:08:52.083Z,21.22
2022-09-12T20:11:21.800Z,21.22
2022-09-12T20:13:48.230Z,21.11
2022-09-12T20:16:22.019Z,21.15
2022-09-12T20:18:53.936Z,21.17
2022-09-12T20:21:24.890Z,21.16
2022-09-12T20:23:51.736Z,21.02
2022-09-12T20:26:20.202Z,20.93
2022-09-12T20:28:46.887Z,20.98
2022-09-12T20:31:16.108Z,20.95
2022-09-12T20:33:43.482Z,21.03
2022-09-12T20:36:14.034Z,20.94
2022-09-12T20:38:40.974Z,20.77
2022-09-12T20:41:09.953Z,20.62
2022-09-12T20:43:38.568Z,20.55
2022-09-12T20:46:06.870Z,20.49
2022-09-12T20:48:33.404Z,20.35
2022-09-12T20:50:59.992Z,20.13
2022-09-12T20:53:28.831Z,20.32
2022-09-12T20:55:58.107Z,20.29
2022-09-12T20:58:24.765Z,20.15
2022-09-12T21:00:51.254Z,20.18
2022-09-12T21:03:18.398Z,20.03
2022-09-12T21:05:46.067Z,20.03
2022-09-12T21:08:13.649Z,20.08
2022-09-12T21:10:42.054Z,20.08
2022-09-12T21:13:12.889Z,19.96
2022-09-12T21:15:40.393Z,19.92
2022-09-12T21:18:07.217Z,20.01
2022-09-12T21:20:34.038Z,19.96
2022-09-12T21:23:00.465Z,19.85
2022-09-12T21:25:28.928Z,19.90
2022-09-12T21:27:55.394Z,19.88
2022-09-12T21:30:22.363Z,19.92
2022-09-12T21:32:48.943Z,19.97
2022-09-12T21:35:15.650Z,19.76
2022-09-12T21:37:42.071Z,19.64
2022-09-12T21:40:08.912Z,19.67
2022-09-12T21:42:35.482Z,19.76
2022-09-12T21:45:01.904Z,19.72
2022-09-12T21:47:28.365Z,19.47
2022-09-12T21:49:55.354Z,19.53
2022-09-12T21:52:23.225Z,19.51
2022-09-12T21:54:49.611Z,19.44
2022-09-12T21:57:16.049Z,19.33
2022-09-12T21:59:42.517Z,19.24
2022-09-12T22:02:10.223Z,19.14
2022-09-12T22:04:36.714Z,18.95
2022-09-12T22:07:03.181Z,19.13
2022-09-12T22:09:29.583Z,19.04
2022-09-12T22:11:55.994Z,19.13
2022-09-12T22:14:22.457Z,19.18
2022-09-12T22:16:49.446Z,19.12
2022-09-12T22:19:15.942Z,19.05
2022-09-12T22:22:02.324Z,18.99
2022-09-12T22:24:29.097Z,18.93
2022-09-12T22:26:57.337Z,19.05
2022-09-12T22:29:23.764Z,18.94
2022-09-12T22:31:50.357Z,18.92
2022-09-12T22:34:16.764Z,18.79
2022-09-12T22:36:43.216Z,18.74
2022-09-12T22:39:09.839Z,18.71
2022-09-12T22:41:36.335Z,18.79
2022-09-12T22:44:02.867Z,18.74
2022-09-12T22:46:30.568Z,18.60
2022-09-12T22:48:57.058Z,18.64
2022-09-12T22:51:23.875Z,18.65
2022-09-12T22:53:50.332Z,18.59
2022-09-12T22:56:17.471Z,18.50
2022-09-12T22:58:44.045Z,18.44
2022-09-12T23:01:10.639Z,18.27
2022-09-12T23:03:37.679Z,18.36
2022-09-12T23:06:04.754Z,18.32
2022-09-12T23:08:31.500Z,18.23
2022-09-12T23:11:09.387Z,18.23
2022-09-12T23:13:37.137Z,18.22
2022-09-12T23:16:06.656Z,18.17
2022-09-12T23:18:36.905Z,18.11
2022-09-12T23:21:06.782Z,18.07
2022-09-12T23:23:33.664Z,18.07
2022-09-12T23:26:12.497Z,18.04
2022-09-12T23:28:48.536Z,18.10
2022-09-12T23:31:17.097Z,18.02
2022-09-12T23:33:44.267Z,17.91
2022-09-12T23:36:14.335Z,17.91
2022-09-12T23:38:42.722Z,17.87
2022-09-12T23:41:10.181Z,17.85
2022-09-12T23:43:37.019Z,17.85
2022-09-12T23:46:04.589Z,17.85
2022-09-12T23:48:31.981Z,17.82
2022-09-12T23:50:58.548Z,17.81
2022-09-12T23:53:25.462Z,17.76
2022-09-12T23:55:52.323Z,17.70
2022-09-12T23:58:18.957Z,17.68
